Weather at Neff Field [CLOSED]

Public forecast

Using degrees Fahrenheit for public forecast. Weather courtesy of forecast.io.

Closest aviation weather report (METAR) to Neff Field

Report is more than 6 hours old.

Closest report is Ryan Field, 4.5 nm (8.4 km) NE. Retrieved 2022/07/06 02:45 UTC (7 hours ago):

KRYN 060245Z 21008KT 10SM CLR 33/07 A2987 RMK LAST

Closest aviation forecast (TAF) to Neff Field

Closest forecast is Tucson International Airport / Morris Air National Guard Base, 15.4 nm (28.5 km) E. Retrieved 2022/07/06 06:22 UTC (3 hours ago):

TAF KTUS 060520Z 0606/0706 16006KT P6SM SKC FM061700 24005KT P6SM FEW120 FM062000 28008KT P6SM SCT120 FM070400 22005KT P6SM SCT120